createdAt,value
2022-12-22T00:01:59.338Z,91.65
2022-12-22T00:04:44.402Z,91.61
2022-12-22T00:07:29.101Z,90.72
2022-12-22T00:10:13.893Z,90.73
2022-12-22T00:12:58.611Z,90.96
2022-12-22T00:15:43.838Z,90.63
2022-12-22T00:18:35.666Z,90.84
2022-12-22T00:21:20.375Z,91.00
2022-12-22T00:24:05.258Z,90.67
2022-12-22T00:26:52.747Z,91.26
2022-12-22T00:29:37.987Z,90.57
2022-12-22T00:32:23.826Z,90.96
2022-12-22T00:35:10.120Z,91.21
2022-12-22T00:37:56.456Z,91.35
2022-12-22T00:40:46.715Z,90.42
2022-12-22T00:43:32.649Z,90.93
2022-12-22T00:46:20.852Z,91.43
2022-12-22T00:49:06.887Z,90.98
2022-12-22T00:51:52.679Z,90.50
2022-12-22T00:54:39.954Z,90.74
2022-12-22T00:57:25.219Z,90.98
2022-12-22T01:00:17.149Z,90.35
2022-12-22T01:03:02.049Z,90.78
2022-12-22T01:05:47.257Z,89.68
2022-12-22T01:08:32.655Z,90.40
2022-12-22T01:11:17.311Z,90.33
2022-12-22T01:14:02.112Z,90.04
2022-12-22T01:16:46.927Z,90.62
2022-12-22T01:19:31.720Z,90.42
2022-12-22T01:22:16.929Z,90.22
2022-12-22T01:25:02.606Z,90.66
2022-12-22T01:27:47.466Z,90.81
2022-12-22T01:30:32.754Z,90.99
2022-12-22T01:33:17.840Z,90.18
2022-12-22T01:36:02.620Z,90.78
2022-12-22T01:38:47.383Z,90.19
2022-12-22T01:41:38.868Z,90.05
2022-12-22T01:44:36.858Z,89.72
2022-12-22T01:47:58.705Z,90.68
2022-12-22T01:50:52.493Z,89.82
2022-12-22T01:53:41.839Z,90.32
2022-12-22T01:56:27.339Z,90.69
2022-12-22T01:59:16.095Z,90.54
2022-12-22T02:02:02.678Z,90.40
2022-12-22T02:04:55.336Z,90.15
2022-12-22T02:08:25.830Z,90.80
2022-12-22T02:11:23.448Z,90.71
2022-12-22T02:14:30.303Z,90.73
2022-12-22T02:17:53.195Z,90.64
2022-12-22T02:20:44.188Z,89.64
2022-12-22T02:23:41.570Z,90.74
2022-12-22T02:27:06.187Z,90.82
2022-12-22T02:29:55.409Z,90.07
2022-12-22T02:32:44.297Z,89.94
2022-12-22T02:35:31.816Z,90.66
2022-12-22T02:38:45.293Z,91.04
2022-12-22T02:41:59.979Z,89.73
2022-12-22T02:45:27.023Z,89.85
2022-12-22T02:48:22.760Z,90.84
2022-12-22T02:51:17.597Z,89.82
2022-12-22T02:54:04.221Z,90.82
2022-12-22T02:56:49.213Z,90.28
2022-12-22T02:59:34.028Z,90.19
2022-12-22T03:02:19.617Z,89.67
2022-12-22T03:05:04.795Z,89.93
2022-12-22T03:07:49.711Z,90.09
2022-12-22T03:10:34.430Z,89.89
2022-12-22T03:13:19.553Z,90.36
2022-12-22T03:16:04.397Z,90.45
2022-12-22T03:18:49.236Z,90.14
2022-12-22T03:21:34.456Z,89.92
2022-12-22T03:24:19.154Z,90.41
2022-12-22T03:26:45.520Z,90.76
2022-12-22T03:29:11.907Z,90.66
2022-12-22T03:31:38.351Z,90.74
2022-12-22T03:34:04.752Z,89.57
2022-12-22T03:36:31.479Z,89.87
2022-12-22T03:38:57.900Z,90.24
2022-12-22T03:41:47.454Z,90.12
2022-12-22T03:44:32.255Z,91.08
2022-12-22T03:46:58.676Z,90.17
2022-12-22T03:49:26.156Z,90.22
2022-12-22T03:51:53.741Z,89.81
2022-12-22T03:54:22.333Z,90.04
2022-12-22T03:56:49.477Z,90.51
2022-12-22T03:59:16.604Z,89.96
2022-12-22T04:01:45.723Z,89.81
2022-12-22T04:04:14.448Z,90.54
2022-12-22T04:06:42.543Z,89.52
2022-12-22T04:09:09.317Z,90.28
2022-12-22T04:11:54.384Z,89.58
2022-12-22T04:14:21.605Z,89.69
2022-12-22T04:16:48.354Z,90.12
2022-12-22T04:19:15.979Z,90.49
2022-12-22T04:21:43.407Z,89.80
2022-12-22T04:24:11.854Z,90.10
2022-12-22T04:26:38.766Z,90.69
2022-12-22T04:29:05.249Z,90.22
2022-12-22T04:31:31.772Z,89.87
2022-12-22T04:33:58.511Z,90.24
2022-12-22T04:36:24.884Z,89.69
2022-12-22T04:38:51.488Z,89.62
2022-12-22T04:41:17.867Z,89.61
2022-12-22T04:43:44.301Z,89.40
2022-12-22T04:46:10.825Z,89.96
2022-12-22T04:48:37.308Z,89.73
2022-12-22T04:51:03.956Z,90.66
2022-12-22T04:53:30.980Z,89.93
2022-12-22T04:56:03.250Z,90.67
2022-12-22T04:58:30.747Z,90.43
2022-12-22T05:00:57.283Z,89.65
2022-12-22T05:03:24.923Z,89.73
2022-12-22T05:05:51.585Z,89.92
2022-12-22T05:08:18.009Z,89.82
2022-12-22T05:10:44.629Z,90.23
2022-12-22T05:13:11.118Z,89.90
2022-12-22T05:15:37.717Z,90.01
2022-12-22T05:18:04.488Z,90.08
2022-12-22T05:20:31.107Z,90.41
2022-12-22T05:22:59.515Z,90.39
2022-12-22T05:25:29.929Z,89.53
2022-12-22T05:27:59.462Z,89.47
2022-12-22T05:30:26.440Z,90.25
2022-12-22T05:32:52.908Z,90.01
2022-12-22T05:35:19.434Z,89.54
2022-12-22T05:37:45.885Z,90.42
2022-12-22T05:40:12.787Z,89.86
2022-12-22T05:42:39.477Z,89.84
2022-12-22T05:45:07.675Z,89.92
2022-12-22T05:47:34.485Z,89.16
2022-12-22T05:50:00.947Z,89.46
2022-12-22T05:52:27.944Z,89.23
2022-12-22T05:54:54.426Z,89.54
2022-12-22T05:57:20.936Z,90.22
2022-12-22T05:59:47.464Z,89.13
2022-12-22T06:02:14.041Z,89.72
2022-12-22T06:04:40.570Z,89.50
2022-12-22T06:07:07.117Z,89.76
2022-12-22T06:09:33.447Z,90.24
2022-12-22T06:11:59.791Z,90.02
2022-12-22T06:14:26.240Z,89.99
2022-12-22T06:16:52.665Z,90.13
2022-12-22T06:19:19.009Z,90.30
2022-12-22T06:21:45.606Z,89.84
2022-12-22T06:24:12.031Z,90.01
2022-12-22T06:26:38.467Z,89.35
2022-12-22T06:29:04.884Z,90.00
2022-12-22T06:31:31.318Z,89.35
2022-12-22T06:33:57.787Z,89.98
2022-12-22T06:36:24.221Z,90.01
2022-12-22T06:38:50.607Z,89.44
2022-12-22T06:41:36.986Z,90.06
2022-12-22T06:44:03.415Z,89.09
2022-12-22T06:46:29.845Z,89.96
2022-12-22T06:48:56.318Z,89.37
2022-12-22T06:51:22.656Z,89.27
2022-12-22T06:53:49.078Z,89.26
2022-12-22T06:56:15.558Z,89.06
2022-12-22T06:58:41.901Z,88.94
2022-12-22T07:01:08.273Z,89.59
2022-12-22T07:03:34.759Z,88.73
2022-12-22T07:06:01.238Z,90.02
2022-12-22T07:08:27.625Z,88.69
2022-12-22T07:11:00.157Z,88.93
2022-12-22T07:13:33.983Z,88.42
2022-12-22T07:16:02.421Z,89.40
2022-12-22T07:18:31.271Z,88.74
2022-12-22T07:20:59.560Z,88.84
2022-12-22T07:23:26.453Z,89.52
2022-12-22T07:25:52.888Z,88.77
2022-12-22T07:28:21.267Z,89.33
2022-12-22T07:30:49.465Z,89.24
2022-12-22T07:33:16.047Z,88.69
2022-12-22T07:35:42.488Z,88.84
2022-12-22T07:38:08.899Z,88.51
2022-12-22T07:40:39.595Z,89.33
2022-12-22T07:43:08.154Z,88.35
2022-12-22T07:45:34.577Z,88.95
2022-12-22T07:48:02.159Z,88.44
2022-12-22T07:50:28.663Z,88.84
2022-12-22T07:52:56.390Z,88.27
2022-12-22T07:55:24.528Z,88.92
2022-12-22T07:57:52.180Z,88.02
2022-12-22T08:00:19.359Z,87.93
2022-12-22T08:02:55.155Z,88.35
2022-12-22T08:05:23.048Z,88.66
2022-12-22T08:07:50.767Z,88.35
2022-12-22T08:10:18.929Z,87.82
2022-12-22T08:12:45.986Z,88.28
2022-12-22T08:15:12.716Z,87.63
2022-12-22T08:17:39.392Z,87.55
2022-12-22T08:20:06.580Z,88.32
2022-12-22T08:22:33.028Z,88.22
2022-12-22T08:24:59.424Z,88.14
2022-12-22T08:27:40.541Z,87.46
2022-12-22T08:30:08.543Z,87.95
2022-12-22T08:32:37.061Z,88.34
2022-12-22T08:35:05.147Z,87.88
2022-12-22T08:37:35.646Z,87.55
2022-12-22T08:40:06.636Z,87.18
2022-12-22T08:42:33.835Z,88.17
2022-12-22T08:45:00.265Z,88.20
2022-12-22T08:47:26.710Z,86.89
2022-12-22T08:49:53.236Z,87.54
2022-12-22T08:52:19.763Z,87.05
2022-12-22T08:54:46.606Z,87.25
2022-12-22T08:57:13.071Z,87.85
2022-12-22T08:59:39.482Z,87.09
2022-12-22T09:02:06.125Z,86.83
2022-12-22T09:04:33.843Z,87.53
2022-12-22T09:07:02.391Z,87.47
2022-12-22T09:09:34.498Z,87.70
2022-12-22T09:12:02.206Z,87.34
2022-12-22T09:14:29.468Z,87.21
2022-12-22T09:16:56.531Z,87.46
2022-12-22T09:19:23.037Z,87.08
2022-12-22T09:21:49.526Z,86.84
2022-12-22T09:24:16.169Z,87.11
2022-12-22T09:26:43.029Z,86.16
2022-12-22T09:29:09.983Z,86.85
2022-12-22T09:31:36.740Z,86.79
2022-12-22T09:34:03.248Z,86.91
2022-12-22T09:36:31.185Z,86.62
2022-12-22T09:38:57.703Z,87.35
2022-12-22T09:41:34.760Z,86.87
2022-12-22T09:44:13.596Z,87.44
2022-12-22T09:46:40.668Z,86.86
2022-12-22T09:49:07.585Z,87.33
2022-12-22T09:51:46.509Z,86.88
2022-12-22T09:54:14.130Z,86.48
2022-12-22T09:56:40.771Z,86.89
2022-12-22T09:59:19.199Z,86.65
2022-12-22T10:02:10.758Z,87.12
2022-12-22T10:05:05.248Z,86.55
2022-12-22T10:07:42.750Z,87.23
2022-12-22T10:10:12.780Z,87.47
2022-12-22T10:12:39.192Z,86.48
2022-12-22T10:15:15.469Z,87.18
2022-12-22T10:17:44.874Z,86.53
2022-12-22T10:20:26.392Z,86.86
2022-12-22T10:23:01.031Z,87.28
2022-12-22T10:26:17.383Z,87.38
2022-12-22T10:28:36.078Z,86.85
2022-12-22T10:31:21.040Z,87.42
2022-12-22T10:33:50.075Z,86.30
2022-12-22T10:36:25.319Z,87.24
2022-12-22T10:38:59.537Z,86.20
2022-12-22T10:41:29.544Z,86.97
2022-12-22T10:43:59.095Z,87.05
2022-12-22T10:46:38.826Z,87.27
2022-12-22T10:49:15.148Z,87.19
2022-12-22T10:51:44.158Z,87.55
2022-12-22T10:54:24.564Z,87.09
2022-12-22T10:57:14.241Z,87.86
2022-12-22T10:59:53.743Z,87.37
2022-12-22T11:02:34.557Z,86.42
2022-12-22T11:05:10.261Z,86.97
2022-12-22T11:07:39.946Z,86.46
2022-12-22T11:10:15.300Z,87.14
2022-12-22T11:13:08.291Z,87.20
2022-12-22T11:16:00.784Z,87.23
2022-12-22T11:18:45.949Z,87.76
2022-12-22T11:21:46.513Z,86.47
2022-12-22T11:24:30.002Z,87.29
2022-12-22T11:27:05.304Z,87.48
2022-12-22T11:29:37.562Z,87.33
2022-12-22T11:32:06.844Z,86.43
2022-12-22T11:34:46.030Z,86.92
2022-12-22T11:37:29.849Z,86.63
2022-12-22T11:40:09.435Z,87.15
2022-12-22T11:42:55.257Z,87.33
2022-12-22T11:45:44.770Z,87.27
2022-12-22T11:48:29.626Z,87.21
2022-12-22T11:51:08.500Z,87.05
2022-12-22T11:53:39.912Z,86.66
2022-12-22T11:56:18.687Z,86.52
2022-12-22T11:59:06.157Z,86.80
2022-12-22T12:01:43.445Z,86.54
2022-12-22T12:04:22.164Z,86.73
2022-12-22T12:07:02.644Z,86.54
2022-12-22T12:09:55.942Z,86.54
2022-12-22T12:12:40.596Z,85.92
2022-12-22T12:15:51.746Z,86.62
2022-12-22T12:18:27.109Z,85.91
2022-12-22T12:20:56.369Z,86.24
2022-12-22T12:23:44.675Z,86.02
2022-12-22T12:26:19.309Z,85.39
2022-12-22T12:29:14.649Z,84.88
2022-12-22T12:32:05.470Z,84.30
2022-12-22T12:34:35.640Z,84.61
2022-12-22T12:37:12.523Z,84.45
2022-12-22T12:39:45.517Z,84.47
2022-12-22T12:42:20.879Z,84.92
2022-12-22T12:44:48.027Z,84.68
2022-12-22T12:47:20.158Z,85.37
2022-12-22T12:49:58.799Z,85.14
2022-12-22T12:52:49.917Z,85.36
2022-12-22T12:55:34.420Z,85.20
2022-12-22T12:58:03.879Z,84.94
2022-12-22T13:00:33.798Z,84.87
2022-12-22T13:03:01.672Z,84.41
2022-12-22T13:05:36.627Z,84.67
2022-12-22T13:08:31.642Z,84.13
2022-12-22T13:10:57.969Z,84.53
2022-12-22T13:13:24.723Z,84.04
2022-12-22T13:16:00.457Z,84.40
2022-12-22T13:18:28.360Z,84.51
2022-12-22T13:21:52.316Z,84.31
2022-12-22T13:24:28.559Z,84.12
2022-12-22T13:27:01.728Z,83.57
2022-12-22T13:29:41.255Z,84.04
2022-12-22T13:32:28.495Z,84.33
2022-12-22T13:37:54.070Z,83.73
2022-12-22T13:40:32.015Z,84.27
2022-12-22T13:43:11.369Z,83.92
2022-12-22T13:45:41.278Z,84.01
2022-12-22T13:48:30.504Z,83.30
2022-12-22T13:51:00.664Z,83.90
2022-12-22T13:54:08.530Z,83.55
2022-12-22T13:56:40.534Z,83.16
2022-12-22T13:59:20.818Z,82.78
2022-12-22T14:01:51.773Z,83.33
2022-12-22T14:04:18.467Z,83.13
2022-12-22T14:06:44.872Z,83.22
2022-12-22T14:09:20.321Z,83.13
2022-12-22T14:11:57.955Z,82.76
2022-12-22T14:14:27.974Z,83.48
2022-12-22T14:16:57.504Z,83.03
2022-12-22T14:19:25.568Z,83.00
2022-12-22T14:22:05.628Z,83.08
2022-12-22T14:24:38.619Z,82.88
2022-12-22T14:27:06.685Z,82.65
2022-12-22T14:29:33.352Z,82.59
2022-12-22T14:32:02.665Z,82.33
2022-12-22T14:34:34.949Z,82.22
2022-12-22T14:37:02.183Z,82.05
2022-12-22T14:39:31.906Z,81.63
2022-12-22T14:42:01.372Z,82.02
2022-12-22T14:44:42.136Z,81.76
2022-12-22T14:47:17.939Z,81.69
2022-12-22T14:49:50.648Z,81.85
2022-12-22T14:52:26.451Z,81.76
2022-12-22T14:54:54.588Z,82.20
2022-12-22T14:57:40.335Z,81.31
2022-12-22T15:00:26.740Z,81.34
2022-12-22T15:02:56.272Z,81.59
2022-12-22T15:05:38.931Z,81.63
2022-12-22T15:08:08.874Z,82.43
2022-12-22T15:10:42.833Z,81.69
2022-12-22T15:13:19.282Z,81.96
2022-12-22T15:15:45.749Z,82.23
2022-12-22T15:18:14.469Z,81.63
2022-12-22T15:20:41.157Z,82.23
2022-12-22T15:23:14.692Z,81.74
2022-12-22T15:25:41.223Z,81.46
2022-12-22T15:28:07.749Z,82.24
2022-12-22T15:30:35.463Z,81.87
2022-12-22T15:33:03.547Z,81.62
2022-12-22T15:35:31.453Z,82.46
2022-12-22T15:37:59.010Z,81.48
2022-12-22T15:40:27.562Z,81.72
2022-12-22T15:43:56.585Z,81.73
2022-12-22T15:46:31.472Z,82.33
2022-12-22T15:52:16.763Z,82.64
2022-12-22T16:00:35.942Z,81.57
2022-12-22T16:03:14.321Z,82.55
2022-12-22T16:06:32.826Z,82.22
2022-12-22T16:09:49.979Z,82.21
2022-12-22T16:12:20.220Z,82.02
2022-12-22T16:15:02.568Z,82.04
2022-12-22T16:17:42.431Z,81.91
2022-12-22T16:23:27.870Z,82.08
2022-12-22T16:26:04.497Z,83.04
2022-12-22T16:32:06.358Z,82.71
2022-12-22T16:35:01.490Z,82.48
2022-12-22T16:37:37.718Z,82.37
2022-12-22T16:40:09.922Z,82.49
2022-12-22T16:46:32.277Z,82.75
2022-12-22T16:49:36.898Z,82.67
2022-12-22T17:02:35.541Z,83.67
2022-12-22T17:05:29.010Z,82.75
2022-12-22T17:15:05.343Z,83.49
2022-12-22T17:21:20.351Z,82.60
2022-12-22T17:24:06.974Z,83.05
2022-12-22T17:27:06.270Z,82.72
2022-12-22T17:29:40.231Z,83.63
2022-12-22T17:32:32.685Z,82.31
2022-12-22T17:35:09.236Z,83.39
2022-12-22T17:38:27.907Z,83.06
2022-12-22T17:44:22.394Z,83.31
2022-12-22T17:47:42.590Z,83.47
2022-12-22T17:53:59.075Z,83.52
2022-12-22T18:00:43.030Z,83.69
2022-12-22T18:03:29.427Z,83.80
2022-12-22T18:06:32.375Z,83.05
2022-12-22T18:10:26.089Z,83.51
2022-12-22T18:16:28.611Z,82.81
2022-12-22T18:23:02.553Z,83.57
2022-12-22T18:26:09.292Z,83.52
2022-12-22T18:28:58.761Z,82.77
2022-12-22T18:32:22.924Z,83.19
2022-12-22T18:35:17.701Z,83.83
2022-12-22T18:38:22.031Z,83.39
2022-12-22T18:44:19.400Z,83.16
2022-12-22T18:48:29.300Z,83.50
2022-12-22T18:51:44.011Z,83.68
2022-12-22T18:54:44.604Z,82.94
2022-12-22T18:57:17.925Z,82.69
2022-12-22T19:00:04.586Z,82.71
2022-12-22T19:03:32.252Z,82.86
2022-12-22T19:06:42.841Z,83.75
2022-12-22T19:09:36.354Z,83.04
2022-12-22T19:13:00.229Z,83.94
2022-12-22T19:15:52.167Z,82.75
2022-12-22T19:18:44.469Z,82.82
2022-12-22T19:21:31.724Z,84.03
2022-12-22T19:24:17.963Z,82.80
2022-12-22T19:26:57.773Z,83.63
2022-12-22T19:29:40.160Z,83.35
2022-12-22T19:36:31.666Z,83.79
2022-12-22T19:39:13.325Z,83.54
2022-12-22T19:42:00.804Z,82.75
2022-12-22T19:44:45.031Z,83.40
2022-12-22T19:55:20.384Z,83.66
2022-12-22T19:56:09.906Z,83.11
2022-12-22T19:58:05.569Z,83.15
2022-12-22T20:00:43.542Z,83.46
2022-12-22T20:03:13.251Z,83.61
2022-12-22T20:05:40.177Z,83.98
2022-12-22T20:08:07.061Z,83.06
2022-12-22T20:10:35.750Z,83.27
2022-12-22T20:13:05.264Z,83.16
2022-12-22T20:15:37.969Z,84.06
2022-12-22T20:18:23.254Z,84.10
2022-12-22T20:21:01.963Z,83.38
2022-12-22T20:23:30.704Z,83.49
2022-12-22T20:26:00.163Z,83.71
2022-12-22T20:28:28.648Z,83.37
2022-12-22T20:30:55.727Z,83.80
2022-12-22T20:33:23.888Z,84.51
2022-12-22T20:35:52.381Z,83.85
2022-12-22T20:38:20.218Z,84.41
2022-12-22T20:40:49.186Z,83.63
2022-12-22T20:43:19.001Z,84.76
2022-12-22T20:45:48.210Z,83.54
2022-12-22T20:48:21.091Z,84.34
2022-12-22T20:50:47.592Z,84.43
2022-12-22T20:53:18.775Z,84.53
2022-12-22T20:55:45.756Z,84.20
2022-12-22T20:58:17.641Z,84.37
2022-12-22T21:00:44.181Z,84.17
2022-12-22T21:03:10.925Z,84.29
2022-12-22T21:05:37.529Z,84.84
2022-12-22T21:08:04.269Z,84.36
2022-12-22T21:10:30.832Z,84.28
2022-12-22T21:12:57.250Z,84.23
2022-12-22T21:15:25.968Z,83.97
2022-12-22T21:17:58.200Z,85.21
2022-12-22T21:20:27.884Z,84.20
2022-12-22T21:22:54.561Z,84.94
2022-12-22T21:25:21.063Z,84.22
2022-12-22T21:27:50.046Z,84.54
2022-12-22T21:30:21.895Z,84.56
2022-12-22T21:32:49.329Z,84.38
2022-12-22T21:35:22.752Z,85.23
2022-12-22T21:37:52.321Z,84.63
2022-12-22T21:40:24.371Z,84.69
2022-12-22T21:42:51.926Z,85.47
2022-12-22T21:45:21.318Z,84.17
2022-12-22T21:47:48.269Z,84.61
2022-12-22T21:50:20.565Z,85.45
2022-12-22T21:52:50.292Z,84.97
2022-12-22T21:55:21.991Z,85.28
2022-12-22T21:57:48.549Z,85.21
2022-12-22T22:00:17.383Z,85.03
2022-12-22T22:02:44.501Z,85.38
2022-12-22T22:05:25.968Z,84.61
2022-12-22T22:07:53.098Z,85.45
2022-12-22T22:10:24.890Z,85.07
2022-12-22T22:12:52.075Z,85.79
2022-12-22T22:15:19.802Z,85.06
2022-12-22T22:17:47.180Z,85.69
2022-12-22T22:20:18.299Z,86.15
2022-12-22T22:22:46.790Z,85.75
2022-12-22T22:25:15.188Z,86.32
2022-12-22T22:27:47.467Z,85.56
2022-12-22T22:30:21.779Z,86.58
2022-12-22T22:32:49.298Z,85.58
2022-12-22T22:35:16.505Z,86.70
2022-12-22T22:37:44.394Z,85.64
2022-12-22T22:40:13.590Z,85.86
2022-12-22T22:42:41.059Z,85.83
2022-12-22T22:45:08.666Z,85.98
2022-12-22T22:47:35.248Z,86.86
2022-12-22T22:50:06.820Z,87.18
2022-12-22T22:52:33.769Z,86.79
2022-12-22T22:55:00.444Z,87.10
2022-12-22T22:57:27.089Z,87.04
2022-12-22T22:59:53.534Z,87.07
2022-12-22T23:02:20.234Z,87.29
2022-12-22T23:04:46.907Z,86.39
2022-12-22T23:07:13.489Z,86.69
2022-12-22T23:09:39.894Z,86.50
2022-12-22T23:12:06.424Z,86.55
2022-12-22T23:14:32.892Z,86.56
2022-12-22T23:16:59.288Z,87.31
2022-12-22T23:19:26.418Z,87.54
2022-12-22T23:21:52.810Z,87.29
2022-12-22T23:24:19.179Z,87.86
2022-12-22T23:26:45.579Z,87.82
2022-12-22T23:29:11.990Z,86.95
2022-12-22T23:31:38.505Z,87.00
2022-12-22T23:34:05.004Z,87.61
2022-12-22T23:36:32.072Z,86.90
2022-12-22T23:38:58.785Z,88.11
2022-12-22T23:41:25.230Z,87.16
2022-12-22T23:43:53.334Z,86.73
2022-12-22T23:46:19.840Z,87.79
2022-12-22T23:48:51.194Z,87.56
2022-12-22T23:51:17.627Z,88.09
2022-12-22T23:53:44.046Z,87.72
2022-12-22T23:56:10.665Z,87.03
2022-12-22T23:58:37.446Z,87.54
